createdAt,value
2023-05-11T00:00:20.620Z,95721.00
2023-05-11T00:01:19.556Z,95717.00
2023-05-11T00:02:20.563Z,95721.00
2023-05-11T00:03:19.699Z,95721.00
2023-05-11T00:04:19.531Z,95717.00
2023-05-11T00:05:20.518Z,95715.00
2023-05-11T00:06:19.549Z,95717.00
2023-05-11T00:07:20.536Z,95715.00
2023-05-11T00:08:20.713Z,95717.00
2023-05-11T00:09:19.553Z,95715.00
2023-05-11T00:10:20.560Z,95713.00
2023-05-11T00:11:20.570Z,95715.00
2023-05-11T00:12:20.585Z,95713.00
2023-05-11T00:13:20.569Z,95711.00
2023-05-11T00:14:20.608Z,95709.00
2023-05-11T00:15:19.609Z,95709.00
2023-05-11T00:16:20.652Z,95709.00
2023-05-11T00:17:20.680Z,95709.00
2023-05-11T00:18:20.651Z,95707.00
2023-05-11T00:19:20.623Z,95707.00
2023-05-11T00:20:19.873Z,95705.00
2023-05-11T00:21:20.641Z,95704.00
2023-05-11T00:22:20.642Z,95704.00
2023-05-11T00:23:19.674Z,95704.00
2023-05-11T00:24:19.679Z,95704.00
2023-05-11T00:25:20.677Z,95700.00
2023-05-11T00:26:20.689Z,95702.00
2023-05-11T00:27:20.747Z,95698.00
2023-05-11T00:28:20.704Z,95700.00
2023-05-11T00:29:19.725Z,95696.00
2023-05-11T00:30:20.913Z,95696.00
2023-05-11T00:31:19.746Z,95698.00
2023-05-11T00:32:20.797Z,95698.00
2023-05-11T00:33:19.735Z,95694.00
2023-05-11T00:34:20.720Z,95694.00
2023-05-11T00:35:20.722Z,95694.00
2023-05-11T00:36:20.731Z,95692.00
2023-05-11T00:37:20.763Z,95692.00
2023-05-11T00:38:19.848Z,95690.00
2023-05-11T00:39:19.779Z,95690.00
2023-05-11T00:40:20.780Z,95686.00
2023-05-11T00:41:19.815Z,95688.00
2023-05-11T00:42:20.819Z,95690.00
2023-05-11T00:43:20.829Z,95688.00
2023-05-11T00:44:20.839Z,95688.00
2023-05-11T00:45:20.845Z,95690.00
2023-05-11T00:46:20.917Z,95688.00
2023-05-11T00:47:19.880Z,95686.00
2023-05-11T00:48:19.916Z,95688.00
2023-05-11T00:49:20.947Z,95684.00
2023-05-11T00:50:20.067Z,95684.00
2023-05-11T00:51:19.928Z,95686.00
2023-05-11T00:52:19.949Z,95684.00
2023-05-11T00:53:19.960Z,95682.00
2023-05-11T00:54:19.990Z,95680.00
2023-05-11T00:55:20.988Z,95682.00
2023-05-11T00:56:20.034Z,95680.00
2023-05-11T00:57:21.069Z,95678.00
2023-05-11T00:58:21.060Z,95678.00
2023-05-11T00:59:21.042Z,95676.00
2023-05-11T01:00:21.241Z,95676.00
2023-05-11T01:01:21.119Z,95676.00
2023-05-11T01:02:20.113Z,95672.00
2023-05-11T01:03:21.143Z,95672.00
2023-05-11T01:04:21.140Z,95674.00
2023-05-11T01:05:20.160Z,95672.00
2023-05-11T01:06:20.153Z,95672.00
2023-05-11T01:07:21.140Z,95672.00
2023-05-11T01:08:20.165Z,95674.00
2023-05-11T01:09:21.170Z,95674.00
2023-05-11T01:10:20.389Z,95674.00
2023-05-11T01:11:21.236Z,95672.00
2023-05-11T01:12:20.186Z,95672.00
2023-05-11T01:13:21.221Z,95672.00
2023-05-11T01:14:21.230Z,95674.00
2023-05-11T01:15:21.217Z,95672.00
2023-05-11T01:16:21.538Z,95674.00
2023-05-11T01:17:20.236Z,95674.00
2023-05-11T01:18:21.396Z,95674.00
2023-05-11T01:19:21.270Z,95672.00
2023-05-11T01:20:21.280Z,95668.00
2023-05-11T01:21:21.297Z,95672.00
2023-05-11T01:22:21.321Z,95670.00
2023-05-11T01:23:21.333Z,95670.00
2023-05-11T01:24:21.361Z,95672.00
2023-05-11T01:25:21.402Z,95672.00
2023-05-11T01:26:21.418Z,95672.00
2023-05-11T01:27:21.473Z,95672.00
2023-05-11T01:28:20.850Z,95672.00
2023-05-11T01:29:21.501Z,95668.00
2023-05-11T01:30:21.520Z,95668.00
2023-05-11T01:31:21.596Z,95666.00
2023-05-11T01:32:21.599Z,95668.00
2023-05-11T01:33:21.657Z,95668.00
2023-05-11T01:34:21.668Z,95666.00
2023-05-11T01:35:21.678Z,95666.00
2023-05-11T01:36:21.707Z,95666.00
2023-05-11T01:37:21.744Z,95658.00
2023-05-11T01:38:21.848Z,95658.00
2023-05-11T01:39:21.841Z,95666.00
2023-05-11T01:40:21.821Z,95666.00
2023-05-11T01:41:21.844Z,95668.00
2023-05-11T01:42:21.875Z,95658.00
2023-05-11T01:43:21.916Z,95666.00
2023-05-11T01:44:21.910Z,95658.00
2023-05-11T01:45:21.948Z,95658.00
2023-05-11T01:46:21.971Z,95658.00
2023-05-11T01:47:21.996Z,95652.00
2023-05-11T01:48:22.056Z,95654.00
2023-05-11T01:49:22.049Z,95658.00
2023-05-11T01:50:21.246Z,95658.00
2023-05-11T01:51:22.127Z,95654.00
2023-05-11T01:52:21.124Z,95652.00
2023-05-11T01:53:22.197Z,95656.00
2023-05-11T01:54:22.201Z,95654.00
2023-05-11T01:55:22.218Z,95656.00
2023-05-11T01:56:22.278Z,95652.00
2023-05-11T01:57:22.282Z,95654.00
2023-05-11T01:58:22.345Z,95656.00
2023-05-11T01:59:22.329Z,95654.00
2023-05-11T02:00:22.360Z,95654.00
2023-05-11T02:01:22.419Z,95654.00
2023-05-11T02:02:22.441Z,95656.00
2023-05-11T02:03:22.535Z,95656.00
2023-05-11T02:04:22.494Z,95658.00
2023-05-11T02:05:21.515Z,95658.00
2023-05-11T02:06:22.726Z,95656.00
2023-05-11T02:07:21.578Z,95666.00
2023-05-11T02:08:22.617Z,95658.00
2023-05-11T02:09:21.655Z,95656.00
2023-05-11T02:10:22.690Z,95658.00
2023-05-11T02:11:21.706Z,95666.00
2023-05-11T02:12:22.750Z,95666.00
2023-05-11T02:13:22.835Z,95666.00
2023-05-11T02:14:21.814Z,95658.00
2023-05-11T02:15:22.851Z,95656.00
2023-05-11T02:16:22.947Z,95658.00
2023-05-11T02:17:22.916Z,95654.00
2023-05-11T02:18:23.009Z,95658.00
2023-05-11T02:19:21.974Z,95656.00
2023-05-11T02:20:23.011Z,95654.00
2023-05-11T02:21:23.036Z,95654.00
2023-05-11T02:22:23.077Z,95656.00
2023-05-11T02:23:23.146Z,95654.00
2023-05-11T02:24:22.144Z,95654.00
2023-05-11T02:25:23.206Z,95656.00
2023-05-11T02:26:23.193Z,95654.00
2023-05-11T02:27:23.249Z,95654.00
2023-05-11T02:28:23.282Z,95654.00
2023-05-11T02:29:23.317Z,95656.00
2023-05-11T02:30:23.376Z,95654.00
2023-05-11T02:31:23.449Z,95654.00
2023-05-11T02:32:23.447Z,95651.00
2023-05-11T02:33:23.489Z,95652.00
2023-05-11T02:34:23.490Z,95652.00
2023-05-11T02:35:23.522Z,95651.00
2023-05-11T02:36:23.560Z,95649.00
2023-05-11T02:37:22.594Z,95649.00
2023-05-11T02:38:23.648Z,95649.00
2023-05-11T02:39:22.731Z,95649.00
2023-05-11T02:40:23.713Z,95649.00
2023-05-11T02:41:22.768Z,95649.00
2023-05-11T02:42:23.779Z,95649.00
2023-05-11T02:43:22.828Z,95649.00
2023-05-11T02:44:23.876Z,95651.00
2023-05-11T02:45:23.917Z,95651.00
2023-05-11T02:46:22.966Z,95649.00
2023-05-11T02:47:24.020Z,95649.00
2023-05-11T02:48:23.004Z,95649.00
2023-05-11T02:49:23.056Z,95649.00
2023-05-11T02:50:24.092Z,95647.00
2023-05-11T02:51:24.146Z,95645.00
2023-05-11T02:52:24.187Z,95647.00
2023-05-11T02:53:24.213Z,95645.00
2023-05-11T02:54:24.270Z,95645.00
2023-05-11T02:55:24.316Z,95645.00
2023-05-11T02:56:24.404Z,95643.00
2023-05-11T02:57:23.414Z,95641.00
2023-05-11T02:58:24.475Z,95643.00
2023-05-11T02:59:23.496Z,95647.00
2023-05-11T03:00:24.598Z,95645.00
2023-05-11T03:01:25.272Z,95647.00
2023-05-11T03:02:23.734Z,95647.00
2023-05-11T03:03:24.660Z,95647.00
2023-05-11T03:04:24.580Z,95643.00
2023-05-11T03:05:24.563Z,95645.00
2023-05-11T03:06:23.558Z,95641.00
2023-05-11T03:07:23.551Z,95643.00
2023-05-11T03:08:24.565Z,95641.00
2023-05-11T03:09:23.594Z,95639.00
2023-05-11T03:10:24.544Z,95639.00
2023-05-11T03:11:24.538Z,95641.00
2023-05-11T03:12:23.574Z,95641.00
2023-05-11T03:13:23.527Z,95641.00
2023-05-11T03:14:23.536Z,95641.00
2023-05-11T03:15:24.524Z,95641.00
2023-05-11T03:16:23.520Z,95641.00
2023-05-11T03:17:24.602Z,95643.00
2023-05-11T03:18:23.539Z,95641.00
2023-05-11T03:19:24.526Z,95643.00
2023-05-11T03:20:23.483Z,95641.00
2023-05-11T03:21:24.486Z,95639.00
2023-05-11T03:22:23.468Z,95639.00
2023-05-11T03:23:23.457Z,95639.00
2023-05-11T03:24:23.447Z,95639.00
2023-05-11T03:25:24.470Z,95637.00
2023-05-11T03:26:24.450Z,95637.00
2023-05-11T03:27:24.440Z,95635.00
2023-05-11T03:28:23.453Z,95637.00
2023-05-11T03:29:24.429Z,95633.00
2023-05-11T03:30:23.465Z,95635.00
2023-05-11T03:31:24.544Z,95633.00
2023-05-11T03:32:23.733Z,95633.00
2023-05-11T03:33:23.595Z,95635.00
2023-05-11T03:34:24.632Z,95631.00
2023-05-11T03:35:24.687Z,95633.00
2023-05-11T03:36:24.722Z,95633.00
2023-05-11T03:37:23.746Z,95633.00
2023-05-11T03:38:24.816Z,95631.00
2023-05-11T03:39:24.861Z,95631.00
2023-05-11T03:40:24.897Z,95629.00
2023-05-11T03:41:23.922Z,95629.00
2023-05-11T03:42:23.964Z,95629.00
2023-05-11T03:43:25.013Z,95627.00
2023-05-11T03:44:25.077Z,95627.00
2023-05-11T03:45:25.100Z,95627.00
2023-05-11T03:46:24.255Z,95623.00
2023-05-11T03:47:25.193Z,95623.00
2023-05-11T03:48:25.244Z,95623.00
2023-05-11T03:49:25.256Z,95623.00
2023-05-11T03:50:25.303Z,95623.00
2023-05-11T03:51:25.347Z,95625.00
2023-05-11T03:52:25.392Z,95625.00
2023-05-11T03:53:24.432Z,95627.00
2023-05-11T03:54:25.473Z,95625.00
2023-05-11T03:55:24.519Z,95629.00
2023-05-11T03:56:25.574Z,95625.00
2023-05-11T03:57:25.612Z,95623.00
2023-05-11T03:58:24.641Z,95625.00
2023-05-11T03:59:25.701Z,95625.00
2023-05-11T04:00:25.755Z,95627.00
2023-05-11T04:01:25.798Z,95625.00
2023-05-11T04:02:24.997Z,95621.00
2023-05-11T04:03:25.007Z,95623.00
2023-05-11T04:04:25.949Z,95621.00
2023-05-11T04:05:25.983Z,95621.00
2023-05-11T04:06:25.004Z,95621.00
2023-05-11T04:07:26.077Z,95621.00
2023-05-11T04:08:26.097Z,95619.00
2023-05-11T04:09:25.159Z,95621.00
2023-05-11T04:10:25.207Z,95621.00
2023-05-11T04:11:26.252Z,95623.00
2023-05-11T04:12:26.308Z,95621.00
2023-05-11T04:13:26.358Z,95619.00
2023-05-11T04:14:26.393Z,95623.00
2023-05-11T04:15:26.440Z,95625.00
2023-05-11T04:16:26.538Z,95621.00
2023-05-11T04:17:26.568Z,95621.00
2023-05-11T04:18:26.618Z,95623.00
2023-05-11T04:19:25.632Z,95615.00
2023-05-11T04:20:25.711Z,95623.00
2023-05-11T04:21:26.753Z,95619.00
2023-05-11T04:22:25.800Z,95625.00
2023-05-11T04:23:26.856Z,95625.00
2023-05-11T04:24:26.895Z,95621.00
2023-05-11T04:25:26.956Z,95627.00
2023-05-11T04:26:27.020Z,95621.00
2023-05-11T04:27:27.060Z,95621.00
2023-05-11T04:28:27.102Z,95623.00
2023-05-11T04:29:26.161Z,95623.00
2023-05-11T04:30:27.352Z,95623.00
2023-05-11T04:31:27.291Z,95627.00
2023-05-11T04:32:26.431Z,95629.00
2023-05-11T04:33:26.391Z,95631.00
2023-05-11T04:34:27.431Z,95633.00
2023-05-11T04:35:27.493Z,95633.00
2023-05-11T04:36:26.537Z,95637.00
2023-05-11T04:37:27.585Z,95635.00
2023-05-11T04:38:27.650Z,95639.00
2023-05-11T04:39:27.698Z,95639.00
2023-05-11T04:40:27.755Z,95641.00
2023-05-11T04:41:26.858Z,95637.00
2023-05-11T04:42:27.882Z,95639.00
2023-05-11T04:43:27.905Z,95637.00
2023-05-11T04:44:27.962Z,95639.00
2023-05-11T04:45:28.022Z,95637.00
2023-05-11T04:46:27.107Z,95641.00
2023-05-11T04:47:27.146Z,95641.00
2023-05-11T04:48:28.216Z,95641.00
2023-05-11T04:49:28.281Z,95645.00
2023-05-11T04:50:28.344Z,95643.00
2023-05-11T04:51:27.338Z,95643.00
2023-05-11T04:52:27.386Z,95649.00
2023-05-11T04:53:28.536Z,95645.00
2023-05-11T04:54:28.526Z,95649.00
2023-05-11T04:55:28.703Z,95647.00
2023-05-11T04:56:28.612Z,95647.00
2023-05-11T04:57:28.644Z,95647.00
2023-05-11T04:58:27.700Z,95651.00
2023-05-11T04:59:27.832Z,95651.00
2023-05-11T05:00:28.833Z,95651.00
2023-05-11T05:01:28.949Z,95652.00
2023-05-11T05:02:27.938Z,95654.00
2023-05-11T05:03:29.006Z,95654.00
2023-05-11T05:04:29.045Z,95652.00
2023-05-11T05:05:29.057Z,95656.00
2023-05-11T05:06:29.162Z,95652.00
2023-05-11T05:07:29.154Z,95652.00
2023-05-11T05:08:28.204Z,95654.00
2023-05-11T05:09:28.270Z,95658.00
2023-05-11T05:10:29.352Z,95654.00
2023-05-11T05:11:29.421Z,95654.00
2023-05-11T05:12:29.451Z,95654.00
2023-05-11T05:13:29.505Z,95654.00
2023-05-11T05:14:29.567Z,95654.00
2023-05-11T05:15:28.658Z,95654.00
2023-05-11T05:16:31.623Z,95654.00
2023-05-11T05:17:29.721Z,95654.00
2023-05-11T05:18:28.775Z,95656.00
2023-05-11T05:19:28.665Z,95656.00
2023-05-11T05:20:28.711Z,95658.00
2023-05-11T05:21:29.660Z,95658.00
2023-05-11T05:22:28.728Z,95658.00
2023-05-11T05:23:28.699Z,95666.00
2023-05-11T05:24:29.612Z,95658.00
2023-05-11T05:25:29.609Z,95658.00
2023-05-11T05:26:29.607Z,95656.00
2023-05-11T05:27:29.596Z,95666.00
2023-05-11T05:28:28.592Z,95668.00
2023-05-11T05:29:28.622Z,95668.00
2023-05-11T05:30:29.593Z,95668.00
2023-05-11T05:31:29.714Z,95670.00
2023-05-11T05:32:28.586Z,95672.00
2023-05-11T05:33:28.553Z,95670.00
2023-05-11T05:34:29.592Z,95672.00
2023-05-11T05:35:29.573Z,95672.00
2023-05-11T05:36:29.582Z,95674.00
2023-05-11T05:37:28.538Z,95676.00
2023-05-11T05:38:29.555Z,95676.00
2023-05-11T05:39:29.684Z,95676.00
2023-05-11T05:40:29.643Z,95674.00
2023-05-11T05:41:29.525Z,95676.00
2023-05-11T05:42:30.098Z,95674.00
2023-05-11T05:43:29.519Z,95676.00
2023-05-11T05:44:28.859Z,95674.00
2023-05-11T05:45:29.946Z,95676.00
2023-05-11T05:46:31.689Z,95676.00
2023-05-11T05:47:29.901Z,95678.00
2023-05-11T05:48:29.885Z,95674.00
2023-05-11T05:49:29.944Z,95676.00
2023-05-11T05:50:28.648Z,95672.00
2023-05-11T05:51:30.703Z,95672.00
2023-05-11T05:52:31.799Z,95676.00
2023-05-11T05:53:30.134Z,95676.00
2023-05-11T05:54:28.659Z,95678.00
2023-05-11T05:55:29.474Z,95674.00
2023-05-11T05:56:29.471Z,95680.00
2023-05-11T05:57:29.466Z,95678.00
2023-05-11T05:58:29.721Z,95678.00
2023-05-11T05:59:28.534Z,95678.00
2023-05-11T06:00:29.777Z,95682.00
2023-05-11T06:01:29.448Z,95684.00
2023-05-11T06:02:28.508Z,95684.00
2023-05-11T06:03:30.116Z,95686.00
2023-05-11T06:04:28.904Z,95688.00
2023-05-11T06:05:29.499Z,95688.00
2023-05-11T06:06:29.454Z,95688.00
2023-05-11T06:07:29.402Z,95684.00
2023-05-11T06:08:28.430Z,95688.00
2023-05-11T06:09:29.391Z,95688.00
2023-05-11T06:10:29.396Z,95692.00
2023-05-11T06:11:28.380Z,95690.00
2023-05-11T06:12:29.366Z,95688.00
2023-05-11T06:13:29.428Z,95692.00
2023-05-11T06:14:28.422Z,95690.00
2023-05-11T06:15:29.341Z,95690.00
2023-05-11T06:16:29.398Z,95690.00
2023-05-11T06:17:29.365Z,95692.00
2023-05-11T06:18:28.383Z,95694.00
2023-05-11T06:19:29.322Z,95692.00
2023-05-11T06:20:28.346Z,95694.00
2023-05-11T06:21:35.398Z,95696.00
2023-05-11T06:22:29.311Z,95696.00
2023-05-11T06:23:28.295Z,95696.00
2023-05-11T06:24:29.301Z,95696.00
2023-05-11T06:25:29.296Z,95694.00
2023-05-11T06:26:29.316Z,95694.00
2023-05-11T06:27:28.268Z,95696.00
2023-05-11T06:28:28.270Z,95698.00
2023-05-11T06:29:29.262Z,95696.00
2023-05-11T06:30:29.251Z,95698.00
2023-05-11T06:31:28.272Z,95696.00
2023-05-11T06:32:29.355Z,95698.00
2023-05-11T06:33:28.227Z,95696.00
2023-05-11T06:34:29.245Z,95696.00
2023-05-11T06:35:28.215Z,95696.00
2023-05-11T06:36:29.289Z,95692.00
2023-05-11T06:37:29.260Z,95696.00
2023-05-11T06:38:28.196Z,95692.00
2023-05-11T06:39:29.265Z,95694.00
2023-05-11T06:40:28.275Z,95696.00
2023-05-11T06:41:29.178Z,95696.00
2023-05-11T06:42:29.229Z,95692.00
2023-05-11T06:43:28.169Z,95694.00
2023-05-11T06:44:28.160Z,95692.00
2023-05-11T06:45:29.351Z,95690.00
2023-05-11T06:46:28.171Z,95692.00
2023-05-11T06:47:29.167Z,95688.00
2023-05-11T06:48:29.140Z,95686.00
2023-05-11T06:49:29.131Z,95688.00
2023-05-11T06:50:29.367Z,95688.00
2023-05-11T06:51:29.120Z,95686.00
2023-05-11T06:52:29.106Z,95690.00
2023-05-11T06:53:29.132Z,95688.00
2023-05-11T06:54:29.092Z,95684.00
2023-05-11T06:55:28.104Z,95684.00
2023-05-11T06:56:29.588Z,95688.00
2023-05-11T06:57:29.273Z,95686.00
2023-05-11T06:58:29.108Z,95686.00
2023-05-11T06:59:29.159Z,95688.00
2023-05-11T07:00:28.161Z,95690.00
2023-05-11T07:01:29.232Z,95690.00
2023-05-11T07:02:29.233Z,95684.00
2023-05-11T07:03:28.209Z,95686.00
2023-05-11T07:04:28.250Z,95686.00
2023-05-11T07:05:29.246Z,95692.00
2023-05-11T07:06:28.256Z,95688.00
2023-05-11T07:07:28.261Z,95688.00
2023-05-11T07:08:28.258Z,95688.00
2023-05-11T07:09:28.255Z,95686.00
2023-05-11T07:10:29.282Z,95688.00
2023-05-11T07:11:29.330Z,95688.00
2023-05-11T07:12:28.293Z,95688.00
2023-05-11T07:13:29.273Z,95686.00
2023-05-11T07:14:29.260Z,95688.00
2023-05-11T07:15:30.279Z,95688.00
2023-05-11T07:16:28.315Z,95686.00
2023-05-11T07:17:29.324Z,95688.00
2023-05-11T07:18:29.290Z,95690.00
2023-05-11T07:19:29.246Z,95692.00
2023-05-11T07:20:29.260Z,95694.00
2023-05-11T07:21:28.302Z,95694.00
2023-05-11T07:22:28.356Z,95692.00
2023-05-11T07:23:29.374Z,95692.00
2023-05-11T07:24:28.418Z,95692.00
2023-05-11T07:25:28.484Z,95692.00
2023-05-11T07:26:29.586Z,95694.00
2023-05-11T07:27:29.586Z,95692.00
2023-05-11T07:28:29.629Z,95692.00
2023-05-11T07:29:28.650Z,95690.00
2023-05-11T07:30:29.660Z,95688.00
2023-05-11T07:31:29.754Z,95690.00
2023-05-11T07:32:28.744Z,95688.00
2023-05-11T07:33:28.732Z,95686.00
2023-05-11T07:34:28.767Z,95688.00
2023-05-11T07:35:29.810Z,95688.00
2023-05-11T07:36:29.896Z,95690.00
2023-05-11T07:37:28.929Z,95688.00
2023-05-11T07:38:29.970Z,95690.00
2023-05-11T07:39:29.028Z,95690.00
2023-05-11T07:40:30.099Z,95688.00
2023-05-11T07:41:30.194Z,95688.00
2023-05-11T07:42:29.216Z,95686.00
2023-05-11T07:43:30.282Z,95688.00
2023-05-11T07:44:29.388Z,95686.00
2023-05-11T07:45:29.402Z,95688.00
2023-05-11T07:46:29.528Z,95688.00
2023-05-11T07:47:30.966Z,95688.00
2023-05-11T07:48:30.594Z,95692.00
2023-05-11T07:49:39.901Z,95690.00
2023-05-11T07:50:30.638Z,95690.00
2023-05-11T07:51:30.610Z,95690.00
2023-05-11T07:52:29.937Z,95694.00
2023-05-11T07:53:29.592Z,95696.00
2023-05-11T07:54:30.592Z,95692.00
2023-05-11T07:55:30.711Z,95694.00
2023-05-11T07:56:29.573Z,95696.00
2023-05-11T07:57:30.576Z,95694.00
2023-05-11T07:58:30.591Z,95690.00
2023-05-11T07:59:30.566Z,95690.00
2023-05-11T08:00:30.602Z,95692.00
2023-05-11T08:01:29.551Z,95692.00
2023-05-11T08:02:30.655Z,95686.00
2023-05-11T08:03:30.571Z,95690.00
2023-05-11T08:04:30.530Z,95690.00
2023-05-11T08:05:29.624Z,95690.00
2023-05-11T08:06:30.501Z,95690.00
2023-05-11T08:07:30.505Z,95690.00
2023-05-11T08:08:29.499Z,95686.00
2023-05-11T08:09:29.503Z,95684.00
2023-05-11T08:10:30.550Z,95682.00
2023-05-11T08:11:30.589Z,95686.00
2023-05-11T08:12:30.615Z,95688.00
2023-05-11T08:13:29.642Z,95688.00
2023-05-11T08:14:29.718Z,95686.00
2023-05-11T08:15:30.724Z,95688.00
2023-05-11T08:16:29.889Z,95686.00
2023-05-11T08:17:30.862Z,95688.00
2023-05-11T08:18:30.884Z,95690.00
2023-05-11T08:19:30.899Z,95692.00
2023-05-11T08:20:30.956Z,95688.00
2023-05-11T08:21:31.001Z,95688.00
2023-05-11T08:22:31.084Z,95690.00
2023-05-11T08:23:31.107Z,95690.00
2023-05-11T08:24:31.193Z,95686.00
2023-05-11T08:25:31.207Z,95686.00
2023-05-11T08:26:31.252Z,95686.00
2023-05-11T08:27:31.310Z,95684.00
2023-05-11T08:28:31.346Z,95682.00
2023-05-11T08:29:30.402Z,95682.00
2023-05-11T08:30:30.452Z,95680.00
2023-05-11T08:31:31.548Z,95684.00
2023-05-11T08:32:30.652Z,95682.00
2023-05-11T08:33:38.386Z,95682.00
2023-05-11T08:34:31.692Z,95686.00
2023-05-11T08:35:31.580Z,95686.00
2023-05-11T08:36:31.573Z,95686.00
2023-05-11T08:37:30.571Z,95682.00
2023-05-11T08:38:31.563Z,95680.00
2023-05-11T08:39:46.109Z,95680.00
2023-05-11T08:40:31.543Z,95672.00
2023-05-11T08:41:31.546Z,95680.00
2023-05-11T08:42:31.956Z,95674.00
2023-05-11T08:43:31.530Z,95678.00
2023-05-11T08:44:30.536Z,95678.00
2023-05-11T08:45:31.555Z,95672.00
2023-05-11T08:46:31.523Z,95674.00
2023-05-11T08:47:31.569Z,95670.00
2023-05-11T08:48:30.518Z,95674.00
2023-05-11T08:49:31.549Z,95674.00
2023-05-11T08:50:31.491Z,95674.00
2023-05-11T08:51:31.511Z,95672.00
2023-05-11T08:52:31.469Z,95670.00
2023-05-11T08:53:30.471Z,95670.00
2023-05-11T08:54:30.464Z,95670.00
2023-05-11T08:55:30.456Z,95670.00
2023-05-11T08:56:31.442Z,95668.00
2023-05-11T08:57:30.463Z,95670.00
2023-05-11T08:58:31.442Z,95672.00
2023-05-11T08:59:30.450Z,95672.00
2023-05-11T09:00:30.406Z,95674.00
2023-05-11T09:01:31.445Z,95672.00
2023-05-11T09:02:30.443Z,95676.00
2023-05-11T09:03:31.413Z,95674.00
2023-05-11T09:04:31.412Z,95674.00
2023-05-11T09:05:30.418Z,95672.00
2023-05-11T09:06:31.369Z,95674.00
2023-05-11T09:07:30.461Z,95670.00
2023-05-11T09:08:31.364Z,95668.00
2023-05-11T09:09:31.349Z,95670.00
2023-05-11T09:10:30.345Z,95668.00
2023-05-11T09:11:31.336Z,95674.00
2023-05-11T09:12:31.393Z,95668.00
2023-05-11T09:13:31.407Z,95668.00
2023-05-11T09:14:30.436Z,95668.00
2023-05-11T09:15:37.261Z,95670.00
2023-05-11T09:16:36.649Z,95668.00
2023-05-11T09:17:31.584Z,95666.00
2023-05-11T09:18:31.523Z,95672.00
2023-05-11T09:19:30.481Z,95670.00
2023-05-11T09:20:31.468Z,95672.00
2023-05-11T09:21:31.445Z,95672.00
2023-05-11T09:22:32.133Z,95670.00
2023-05-11T09:23:31.461Z,95668.00
2023-05-11T09:24:31.451Z,95668.00
2023-05-11T09:25:31.424Z,95672.00
2023-05-11T09:26:31.424Z,95672.00
2023-05-11T09:27:31.425Z,95672.00
2023-05-11T09:29:31.409Z,95672.00
2023-05-11T09:30:30.395Z,95672.00
2023-05-11T09:31:31.406Z,95672.00
2023-05-11T09:32:30.397Z,95670.00
2023-05-11T09:33:31.373Z,95670.00
2023-05-11T09:34:30.360Z,95668.00
2023-05-11T09:35:31.430Z,95672.00
2023-05-11T09:36:31.374Z,95672.00
2023-05-11T09:37:30.347Z,95670.00
2023-05-11T09:38:31.338Z,95666.00
2023-05-11T09:39:37.825Z,95672.00
2023-05-11T09:41:34.985Z,95672.00
2023-05-11T09:42:31.316Z,95668.00
2023-05-11T09:43:31.322Z,95668.00
2023-05-11T09:44:31.311Z,95668.00
2023-05-11T09:45:31.309Z,95668.00
2023-05-11T09:46:31.357Z,95668.00
2023-05-11T09:47:31.291Z,95666.00
2023-05-11T09:48:31.531Z,95656.00
2023-05-11T09:49:31.257Z,95658.00
2023-05-11T09:50:31.262Z,95656.00
2023-05-11T09:51:30.295Z,95656.00
2023-05-11T09:52:31.254Z,95654.00
2023-05-11T09:53:31.472Z,95656.00
2023-05-11T09:54:31.243Z,95654.00
2023-05-11T09:55:31.230Z,95654.00
2023-05-11T09:56:31.225Z,95654.00
2023-05-11T09:57:31.218Z,95651.00
2023-05-11T09:58:30.227Z,95654.00
2023-05-11T09:59:31.205Z,95654.00
2023-05-11T10:00:30.195Z,95654.00
2023-05-11T10:01:30.303Z,95656.00
2023-05-11T10:02:30.481Z,95654.00
2023-05-11T10:03:30.309Z,95654.00
2023-05-11T10:04:31.371Z,95652.00
2023-05-11T10:05:31.339Z,95652.00
2023-05-11T10:06:31.343Z,95652.00
2023-05-11T10:07:30.439Z,95652.00
2023-05-11T10:08:30.496Z,95652.00
2023-05-11T10:09:31.497Z,95652.00
2023-05-11T10:10:31.552Z,95651.00
2023-05-11T10:11:31.588Z,95652.00
2023-05-11T10:12:31.647Z,95649.00
2023-05-11T10:13:30.685Z,95649.00
2023-05-11T10:14:31.738Z,95649.00
2023-05-11T10:15:31.804Z,95647.00
2023-05-11T10:16:30.797Z,95651.00
2023-05-11T10:17:30.862Z,95651.00
2023-05-11T10:18:31.912Z,95649.00
2023-05-11T10:19:32.486Z,95647.00
2023-05-11T10:20:30.876Z,95649.00
2023-05-11T10:21:31.875Z,95645.00
2023-05-11T10:22:31.948Z,95649.00
2023-05-11T10:23:31.892Z,95647.00
2023-05-11T10:24:31.882Z,95647.00
2023-05-11T10:25:31.870Z,95647.00
2023-05-11T10:26:31.865Z,95647.00
2023-05-11T10:27:31.897Z,95643.00
2023-05-11T10:28:31.911Z,95641.00
2023-05-11T10:29:30.952Z,95639.00
2023-05-11T10:30:31.965Z,95637.00
2023-05-11T10:31:32.007Z,95639.00
2023-05-11T10:32:32.062Z,95639.00
2023-05-11T10:33:31.083Z,95637.00
2023-05-11T10:34:32.118Z,95637.00
2023-05-11T10:35:31.154Z,95637.00
2023-05-11T10:36:32.185Z,95635.00
2023-05-11T10:37:31.231Z,95635.00
2023-05-11T10:38:32.343Z,95633.00
2023-05-11T10:39:32.328Z,95633.00
2023-05-11T10:40:32.397Z,95631.00
2023-05-11T10:41:31.492Z,95629.00
2023-05-11T10:42:32.529Z,95635.00
2023-05-11T10:43:32.000Z,95635.00
2023-05-11T10:44:31.641Z,95629.00
2023-05-11T10:45:32.736Z,95629.00
2023-05-11T10:46:32.750Z,95627.00
2023-05-11T10:47:31.833Z,95627.00
2023-05-11T10:48:32.007Z,95625.00
2023-05-11T10:49:31.902Z,95627.00
2023-05-11T10:50:33.004Z,95625.00
2023-05-11T10:51:32.013Z,95627.00
2023-05-11T10:52:33.018Z,95629.00
2023-05-11T10:53:32.030Z,95623.00
2023-05-11T10:54:32.048Z,95623.00
2023-05-11T10:55:33.021Z,95623.00
2023-05-11T10:56:33.036Z,95623.00
2023-05-11T10:57:33.668Z,95619.00
2023-05-11T10:58:32.064Z,95617.00
2023-05-11T10:59:32.063Z,95615.00
2023-05-11T11:00:33.121Z,95617.00
2023-05-11T11:01:32.127Z,95613.00
2023-05-11T11:02:33.103Z,95615.00
2023-05-11T11:03:32.519Z,95617.00
2023-05-11T11:04:33.082Z,95615.00
2023-05-11T11:05:32.184Z,95613.00
2023-05-11T11:06:32.189Z,95613.00
2023-05-11T11:07:32.240Z,95615.00
2023-05-11T11:08:32.278Z,95613.00
2023-05-11T11:09:33.327Z,95613.00
2023-05-11T11:10:33.398Z,95611.00
2023-05-11T11:11:33.457Z,95609.00
2023-05-11T11:12:33.497Z,95609.00
2023-05-11T11:13:33.522Z,95611.00
2023-05-11T11:14:32.565Z,95609.00
2023-05-11T11:15:33.604Z,95611.00
2023-05-11T11:16:33.707Z,95611.00
2023-05-11T11:17:33.741Z,95609.00
2023-05-11T11:18:32.720Z,95611.00
2023-05-11T11:19:33.756Z,95607.00
2023-05-11T11:20:32.762Z,95605.00
2023-05-11T11:21:32.922Z,95604.00
2023-05-11T11:22:33.793Z,95604.00
2023-05-11T11:23:33.877Z,95605.00
2023-05-11T11:24:32.829Z,95602.00
2023-05-11T11:25:33.841Z,95604.00
2023-05-11T11:26:33.935Z,95604.00
2023-05-11T11:27:32.866Z,95602.00
2023-05-11T11:28:33.905Z,95604.00
2023-05-11T11:29:32.885Z,95605.00
2023-05-11T11:30:33.890Z,95604.00
2023-05-11T11:31:33.944Z,95604.00
2023-05-11T11:32:34.035Z,95600.00
2023-05-11T11:33:33.996Z,95600.00
2023-05-11T11:34:33.954Z,95600.00
2023-05-11T11:35:33.951Z,95596.00
2023-05-11T11:36:32.976Z,95600.00
2023-05-11T11:37:34.022Z,95600.00
2023-05-11T11:38:34.568Z,95604.00
2023-05-11T11:39:34.088Z,95602.00
2023-05-11T11:40:46.974Z,95604.00
2023-05-11T11:41:34.129Z,95604.00
2023-05-11T11:42:33.138Z,95604.00
2023-05-11T11:43:33.098Z,95600.00
2023-05-11T11:44:34.124Z,95602.00
2023-05-11T11:45:34.107Z,95602.00
2023-05-11T11:46:34.114Z,95602.00